Time;durP1;ratioP1;P1;durP2;ratioP2;P2;SDS_P1;SDS_P2;PMS_P1;PMS_P2;Temp;Humidity;BMP_temperature;BMP_pressure;BME280_temperature;BME280_humidity;BME280_pressure;Samples;Min_cycle;Max_cycle;Signal;HPM_P1;HPM_P2
2022/02/15 00:02:00;;;;;;;;;17.75;16.50;;;;;;;;5062850;28;11451;-76
2022/02/15 00:04:27;;;;;;;;;19.00;16.75;;;;;;;;5060229;28;11507;-76
2022/02/15 00:06:55;;;;;;;;;18.50;13.75;;;;;;;;5058440;28;11521;-76
2022/02/15 00:09:22;;;;;;;;;19.25;17.00;;;;;;;;5076193;28;11464;-76
2022/02/15 00:11:49;;;;;;;;;15.25;14.75;;;;;;;;5063288;28;11523;-76
2022/02/15 00:14:17;;;;;;;;;18.25;16.50;;;;;;;;5063230;28;11456;-77
2022/02/15 00:16:45;;;;;;;;;18.00;17.00;;;;;;;;5055937;28;11554;-75
2022/02/15 00:19:14;;;;;;;;;19.50;19.50;;;;;;;;5053144;28;11619;-76
2022/02/15 00:21:41;;;;;;;;;19.25;17.00;;;;;;;;5059432;28;12251;-76
2022/02/15 00:24:08;;;;;;;;;20.00;17.75;;;;;;;;5062359;28;11552;-76
2022/02/15 00:26:36;;;;;;;;;23.75;21.50;;;;;;;;5037605;28;11474;-76
2022/02/15 00:29:03;;;;;;;;;19.25;14.25;;;;;;;;5046038;28;11583;-76
2022/02/15 00:31:31;;;;;;;;;14.75;14.75;;;;;;;;5062536;28;11516;-76
2022/02/15 00:33:58;;;;;;;;;17.00;14.25;;;;;;;;5065066;28;11467;-76
2022/02/15 00:36:27;;;;;;;;;20.75;17.50;;;;;;;;5058871;28;11482;-76
2022/02/15 00:38:55;;;;;;;;;13.50;13.50;;;;;;;;5067150;28;11965;-78
2022/02/15 00:41:25;;;;;;;;;16.75;16.75;;;;;;;;5064414;28;11481;-77
2022/02/15 00:43:53;;;;;;;;;20.00;17.25;;;;;;;;5037365;28;11463;-77
2022/02/15 00:46:20;;;;;;;;;17.25;13.50;;;;;;;;5060414;28;11503;-77
2022/02/15 00:48:48;;;;;;;;;15.25;14.00;;;;;;;;5062359;28;11476;-77
2022/02/15 00:51:15;;;;;;;;;13.00;10.50;;;;;;;;5064571;28;11473;-77
2022/02/15 00:53:43;;;;;;;;;13.75;11.25;;;;;;;;5065163;28;11625;-78
2022/02/15 00:56:11;;;;;;;;;17.50;14.00;;;;;;;;5063043;28;11465;-77
2022/02/15 00:58:38;;;;;;;;;9.75;9.75;;;;;;;;5056266;28;11471;-77
2022/02/15 01:01:05;;;;;;;;;19.50;13.25;;;;;;;;5061284;28;11425;-77
2022/02/15 01:03:33;;;;;;;;;14.00;12.00;;;;;;;;5065191;28;12279;-77
2022/02/15 01:06:00;;;;;;;;;16.00;14.50;;;;;;;;5058217;28;11572;-77
2022/02/15 01:08:28;;;;;;;;;10.25;10.25;;;;;;;;5068080;28;12239;-77
2022/02/15 01:10:56;;;;;;;;;13.00;13.00;;;;;;;;5055666;28;11483;-77
2022/02/15 01:13:24;;;;;;;;;16.25;12.00;;;;;;;;5077067;28;12290;-77
2022/02/15 01:15:51;;;;;;;;;13.00;13.00;;;;;;;;5065643;28;11617;-76
2022/02/15 01:18:18;;;;;;;;;13.25;13.25;;;;;;;;5062644;28;11553;-77
2022/02/15 01:20:46;;;;;;;;;13.50;11.25;;;;;;;;5073699;28;12655;-77
2022/02/15 01:23:14;;;;;;;;;10.75;9.00;;;;;;;;5064074;28;11509;-77
2022/02/15 01:25:41;;;;;;;;;13.50;13.50;;;;;;;;5064843;28;12386;-78
2022/02/15 01:28:09;;;;;;;;;12.00;10.25;;;;;;;;5064746;28;11470;-77
2022/02/15 01:30:37;;;;;;;;;12.50;12.50;;;;;;;;5061937;28;11399;-77
2022/02/15 01:33:05;;;;;;;;;13.25;13.00;;;;;;;;5063761;28;11480;-77
2022/02/15 01:35:32;;;;;;;;;14.00;13.00;;;;;;;;5065461;28;12296;-77
2022/02/15 01:38:00;;;;;;;;;12.75;12.75;;;;;;;;5064251;28;12191;-77
2022/02/15 01:40:27;;;;;;;;;11.25;11.25;;;;;;;;5078660;28;11482;-77
2022/02/15 01:42:54;;;;;;;;;11.50;11.25;;;;;;;;5050180;28;11581;-77
2022/02/15 01:45:23;;;;;;;;;14.00;13.00;;;;;;;;5055778;28;11480;-78
2022/02/15 01:47:50;;;;;;;;;12.00;10.50;;;;;;;;5058796;28;11474;-78
2022/02/15 01:50:19;;;;;;;;;9.25;8.75;;;;;;;;5049737;28;11508;-78
2022/02/15 01:52:46;;;;;;;;;9.50;9.25;;;;;;;;5058376;28;11442;-78
2022/02/15 01:55:15;;;;;;;;;10.50;10.50;;;;;;;;5057700;28;11448;-77
2022/02/15 01:57:43;;;;;;;;;11.00;8.75;;;;;;;;5061276;28;11452;-77
2022/02/15 02:00:12;;;;;;;;;13.25;11.25;;;;;;;;5053514;28;11376;-77
2022/02/15 02:02:41;;;;;;;;;11.50;11.50;;;;;;;;5060400;28;11461;-77
2022/02/15 02:07:55;;;;;;;;;10.25;8.50;;;;;;;;5059936;28;11425;-77
2022/02/15 02:10:22;;;;;;;;;10.75;10.75;;;;;;;;5054060;28;11445;-77
2022/02/15 02:12:50;;;;;;;;;14.00;10.75;;;;;;;;5058649;28;12309;-77
2022/02/15 02:15:19;;;;;;;;;9.75;7.75;;;;;;;;5031404;28;11480;-77
2022/02/15 02:17:48;;;;;;;;;11.50;9.00;;;;;;;;5053485;28;11461;-77
2022/02/15 02:20:16;;;;;;;;;7.50;6.25;;;;;;;;5055436;28;11523;-76
2022/02/15 02:22:45;;;;;;;;;10.00;7.75;;;;;;;;5078433;28;11439;-77
2022/02/15 02:25:17;;;;;;;;;7.00;7.00;;;;;;;;5035897;28;11450;-77
2022/02/15 02:27:44;;;;;;;;;9.75;8.50;;;;;;;;5055100;28;11552;-78
2022/02/15 02:30:12;;;;;;;;;10.25;8.25;;;;;;;;5044246;28;11453;-77
2022/02/15 02:32:40;;;;;;;;;10.00;7.25;;;;;;;;5052309;28;11471;-77
2022/02/15 02:35:09;;;;;;;;;6.00;6.00;;;;;;;;5054384;28;11470;-77
2022/02/15 02:37:36;;;;;;;;;9.00;6.00;;;;;;;;5052061;28;12272;-77
2022/02/15 02:40:07;;;;;;;;;5.25;5.25;;;;;;;;5057627;28;11513;-77
2022/02/15 02:42:35;;;;;;;;;8.25;5.00;;;;;;;;5059822;28;11560;-78
2022/02/15 02:45:05;;;;;;;;;6.25;6.25;;;;;;;;5039039;28;11436;-77
2022/02/15 02:47:32;;;;;;;;;5.00;5.00;;;;;;;;5059494;28;11451;-78
2022/02/15 02:50:00;;;;;;;;;7.00;5.00;;;;;;;;5050019;28;12014;-77
2022/02/15 02:52:27;;;;;;;;;5.50;5.00;;;;;;;;5051148;28;11442;-78
2022/02/15 02:54:54;;;;;;;;;5.50;5.50;;;;;;;;5047721;28;11532;-77
2022/02/15 02:57:23;;;;;;;;;4.00;4.00;;;;;;;;5038249;28;11430;-78
2022/02/15 02:59:51;;;;;;;;;5.00;5.00;;;;;;;;5051674;28;11556;-78
2022/02/15 03:02:18;;;;;;;;;7.75;4.25;;;;;;;;5060399;28;11453;-78
2022/02/15 03:04:45;;;;;;;;;6.25;5.00;;;;;;;;5049524;28;11528;-78
2022/02/15 03:07:13;;;;;;;;;6.00;6.00;;;;;;;;5048811;28;11521;-77
2022/02/15 03:09:41;;;;;;;;;7.25;5.75;;;;;;;;5059861;28;11452;-77
2022/02/15 03:12:10;;;;;;;;;10.00;5.50;;;;;;;;5051800;28;11458;-77
2022/02/15 03:14:39;;;;;;;;;6.25;6.25;;;;;;;;5061273;28;11528;-77
2022/02/15 03:17:06;;;;;;;;;7.25;6.50;;;;;;;;5058396;28;11445;-78
2022/02/15 03:19:35;;;;;;;;;6.50;6.50;;;;;;;;5055737;28;11451;-77
2022/02/15 03:22:02;;;;;;;;;5.50;4.75;;;;;;;;5048982;28;11424;-78
2022/02/15 03:24:29;;;;;;;;;5.50;4.75;;;;;;;;5052803;28;11528;-77
2022/02/15 03:26:57;;;;;;;;;6.00;6.00;;;;;;;;5019204;28;12267;-78
2022/02/15 03:29:24;;;;;;;;;7.75;7.00;;;;;;;;5031852;28;11473;-77
2022/02/15 03:31:53;;;;;;;;;6.00;6.00;;;;;;;;5061912;28;11478;-76
2022/02/15 03:34:20;;;;;;;;;6.00;6.00;;;;;;;;5056384;28;11430;-77
2022/02/15 03:36:47;;;;;;;;;5.75;5.75;;;;;;;;5057500;28;11450;-76
2022/02/15 03:39:15;;;;;;;;;5.75;5.75;;;;;;;;5056194;28;11449;-76
2022/02/15 03:44:27;;;;;;;;;5.00;5.00;;;;;;;;5063196;28;11410;-76
2022/02/15 03:46:55;;;;;;;;;4.75;4.50;;;;;;;;5060646;28;11418;-76
2022/02/15 03:49:23;;;;;;;;;8.50;5.75;;;;;;;;5062063;28;11423;-76
2022/02/15 03:51:50;;;;;;;;;8.75;8.75;;;;;;;;5064777;28;12390;-77
2022/02/15 03:54:17;;;;;;;;;8.00;5.25;;;;;;;;5066267;28;11415;-76
2022/02/15 03:56:44;;;;;;;;;5.00;5.00;;;;;;;;5052301;28;11454;-76
2022/02/15 03:59:12;;;;;;;;;6.00;4.50;;;;;;;;5048875;28;11439;-76
2022/02/15 04:01:39;;;;;;;;;5.50;5.00;;;;;;;;5065083;28;11418;-76
2022/02/15 04:04:08;;;;;;;;;8.00;6.00;;;;;;;;5061306;28;11419;-76
2022/02/15 04:06:35;;;;;;;;;4.00;4.00;;;;;;;;5069027;28;11561;-76
2022/02/15 04:09:02;;;;;;;;;5.75;4.25;;;;;;;;5055844;28;11443;-75
2022/02/15 04:11:30;;;;;;;;;8.50;6.00;;;;;;;;5066949;28;12376;-76
2022/02/15 04:13:57;;;;;;;;;5.25;3.00;;;;;;;;5063416;28;11550;-75
2022/02/15 04:16:24;;;;;;;;;1.50;1.50;;;;;;;;5054713;28;12200;-75
2022/02/15 04:18:52;;;;;;;;;6.75;5.00;;;;;;;;5062282;28;11400;-76
2022/02/15 04:21:23;;;;;;;;;4.50;4.50;;;;;;;;5054965;28;11484;-75
2022/02/15 04:23:51;;;;;;;;;2.75;2.50;;;;;;;;5065033;28;11457;-76
2022/02/15 04:26:18;;;;;;;;;2.25;2.00;;;;;;;;5053863;28;11593;-75
2022/02/15 04:28:46;;;;;;;;;3.00;3.00;;;;;;;;5062499;28;11484;-76
2022/02/15 04:31:13;;;;;;;;;3.25;3.25;;;;;;;;5039912;28;11388;-76
2022/02/15 04:33:41;;;;;;;;;4.25;2.50;;;;;;;;5062724;28;11445;-76
2022/02/15 04:36:09;;;;;;;;;3.25;3.25;;;;;;;;5065501;28;11405;-76
2022/02/15 04:38:38;;;;;;;;;2.50;2.50;;;;;;;;5063899;28;11450;-76
2022/02/15 04:41:05;;;;;;;;;2.00;2.00;;;;;;;;5063446;28;11421;-76
2022/02/15 04:43:33;;;;;;;;;1.50;1.00;;;;;;;;5051414;28;11439;-75
2022/02/15 04:46:00;;;;;;;;;3.25;1.00;;;;;;;;5059464;28;11474;-75
2022/02/15 04:48:27;;;;;;;;;5.50;3.00;;;;;;;;5064873;28;11447;-75
2022/02/15 04:50:55;;;;;;;;;1.00;1.00;;;;;;;;5059607;28;12677;-76
2022/02/15 04:53:22;;;;;;;;;4.00;4.00;;;;;;;;5062493;28;12239;-77
2022/02/15 04:55:51;;;;;;;;;3.00;3.00;;;;;;;;5064388;28;11512;-76
2022/02/15 04:58:18;;;;;;;;;7.00;4.25;;;;;;;;5045499;28;11438;-77
2022/02/15 05:00:47;;;;;;;;;6.00;4.00;;;;;;;;5056773;28;11400;-75
2022/02/15 05:03:14;;;;;;;;;6.00;4.00;;;;;;;;5055938;28;11440;-76
2022/02/15 05:05:41;;;;;;;;;1.75;1.50;;;;;;;;5062385;28;11438;-77
2022/02/15 05:08:09;;;;;;;;;3.75;3.75;;;;;;;;5039577;28;11426;-76
2022/02/15 05:10:37;;;;;;;;;4.75;4.75;;;;;;;;5046592;28;12250;-77
2022/02/15 05:13:08;;;;;;;;;3.25;3.25;;;;;;;;5064809;28;12646;-75
2022/02/15 05:15:36;;;;;;;;;2.00;2.00;;;;;;;;5061623;28;11498;-76
2022/02/15 05:18:05;;;;;;;;;4.50;4.50;;;;;;;;5050232;28;11443;-75
2022/02/15 05:20:32;;;;;;;;;1.25;1.25;;;;;;;;5049880;28;11463;-76
2022/02/15 05:23:01;;;;;;;;;7.25;5.00;;;;;;;;5057724;28;11435;-77
2022/02/15 05:25:29;;;;;;;;;4.00;1.00;;;;;;;;5058406;28;11515;-77
2022/02/15 05:27:58;;;;;;;;;2.00;2.00;;;;;;;;5059746;28;12177;-77
2022/02/15 05:30:27;;;;;;;;;3.25;3.25;;;;;;;;5056573;28;11421;-76
2022/02/15 05:32:55;;;;;;;;;3.50;2.50;;;;;;;;5054955;28;11473;-77
2022/02/15 05:35:22;;;;;;;;;2.00;2.00;;;;;;;;5058504;28;11469;-79
2022/02/15 05:37:50;;;;;;;;;2.50;2.50;;;;;;;;5054767;28;11454;-78
2022/02/15 05:40:19;;;;;;;;;5.50;4.00;;;;;;;;5053557;28;11462;-78
2022/02/15 05:42:46;;;;;;;;;4.25;4.25;;;;;;;;5054908;28;11521;-79
2022/02/15 05:45:15;;;;;;;;;2.00;2.00;;;;;;;;5048493;28;11797;-79
2022/02/15 05:47:44;;;;;;;;;5.00;2.50;;;;;;;;5051686;28;12488;-78
2022/02/15 05:52:56;;;;;;;;;2.75;2.00;;;;;;;;5061359;28;11552;-78
2022/02/15 05:55:24;;;;;;;;;4.00;4.00;;;;;;;;5066225;28;11484;-77
2022/02/15 05:57:51;;;;;;;;;1.75;1.75;;;;;;;;5060148;28;11483;-78
2022/02/15 06:00:19;;;;;;;;;4.00;4.00;;;;;;;;5063924;28;11515;-78
2022/02/15 06:02:48;;;;;;;;;2.00;2.00;;;;;;;;5059497;28;11510;-77
2022/02/15 06:05:16;;;;;;;;;4.75;3.00;;;;;;;;5041510;28;11649;-79
2022/02/15 06:07:43;;;;;;;;;4.00;1.50;;;;;;;;5058017;28;11621;-76
2022/02/15 06:10:10;;;;;;;;;5.75;2.00;;;;;;;;5044050;28;11517;-76
2022/02/15 06:12:38;;;;;;;;;2.00;2.00;;;;;;;;5061867;28;11507;-76
2022/02/15 06:15:06;;;;;;;;;2.00;2.00;;;;;;;;5061478;28;11641;-78
2022/02/15 06:17:33;;;;;;;;;2.00;2.00;;;;;;;;5061524;28;11600;-76
2022/02/15 06:20:02;;;;;;;;;2.00;2.00;;;;;;;;5066771;28;11567;-76
2022/02/15 06:22:30;;;;;;;;;4.00;1.50;;;;;;;;5049384;28;11488;-76
2022/02/15 06:24:57;;;;;;;;;2.00;2.00;;;;;;;;5064364;28;11607;-77
2022/02/15 06:27:25;;;;;;;;;5.25;4.00;;;;;;;;5061121;28;11526;-75
2022/02/15 06:29:52;;;;;;;;;5.00;3.50;;;;;;;;5051813;28;11529;-77
2022/02/15 06:32:19;;;;;;;;;3.00;2.50;;;;;;;;5051432;28;11464;-80
2022/02/15 06:34:47;;;;;;;;;5.25;5.25;;;;;;;;5058978;28;11623;-76
2022/02/15 06:37:16;;;;;;;;;2.00;2.00;;;;;;;;5052496;28;12349;-77
2022/02/15 06:39:43;;;;;;;;;5.25;5.00;;;;;;;;5061422;28;11494;-77
2022/02/15 06:42:11;;;;;;;;;6.50;6.00;;;;;;;;5063749;28;11596;-77
2022/02/15 06:44:39;;;;;;;;;4.50;4.25;;;;;;;;5062789;28;11612;-78
2022/02/15 06:47:07;;;;;;;;;4.50;4.50;;;;;;;;5060468;28;11455;-84
2022/02/15 06:49:35;;;;;;;;;6.00;2.00;;;;;;;;5074552;28;11673;-85
2022/02/15 06:52:02;;;;;;;;;4.00;4.00;;;;;;;;5081951;28;11620;-85
2022/02/15 06:54:31;;;;;;;;;2.00;2.00;;;;;;;;5060844;28;11497;-75
2022/02/15 06:56:58;;;;;;;;;3.50;3.50;;;;;;;;5071231;28;11601;-76
2022/02/15 06:59:25;;;;;;;;;4.25;4.25;;;;;;;;5062614;28;12659;-78
2022/02/15 07:01:53;;;;;;;;;4.00;4.00;;;;;;;;5069214;28;11486;-78
2022/02/15 07:04:20;;;;;;;;;7.50;5.25;;;;;;;;5067414;28;11475;-76
2022/02/15 07:06:47;;;;;;;;;7.00;4.00;;;;;;;;5062029;28;11529;-78
2022/02/15 07:09:18;;;;;;;;;3.50;3.00;;;;;;;;5063960;28;11537;-82
2022/02/15 07:11:46;;;;;;;;;4.00;4.00;;;;;;;;5061027;28;11495;-78
2022/02/15 07:14:15;;;;;;;;;5.50;3.00;;;;;;;;5054396;28;11508;-78
2022/02/15 07:16:43;;;;;;;;;4.75;2.00;;;;;;;;5071019;28;11554;-79
2022/02/15 07:19:10;;;;;;;;;2.00;2.00;;;;;;;;5063566;28;11587;-78
2022/02/15 07:21:38;;;;;;;;;4.00;4.00;;;;;;;;5062032;28;11576;-79
2022/02/15 07:24:06;;;;;;;;;6.75;1.75;;;;;;;;5057226;28;11507;-77
2022/02/15 07:26:34;;;;;;;;;5.50;4.00;;;;;;;;5050380;28;11623;-78
2022/02/15 07:29:02;;;;;;;;;9.00;7.00;;;;;;;;5060185;28;11588;-79
2022/02/15 07:31:30;;;;;;;;;2.00;2.00;;;;;;;;5052683;28;11602;-78
2022/02/15 07:33:57;;;;;;;;;4.00;4.00;;;;;;;;5039672;28;12341;-78
2022/02/15 07:36:24;;;;;;;;;3.00;2.00;;;;;;;;5061520;28;11628;-79
2022/02/15 07:38:51;;;;;;;;;1.25;1.25;;;;;;;;5067058;28;11448;-79
2022/02/15 07:41:19;;;;;;;;;2.50;2.50;;;;;;;;5040219;28;11497;-79
2022/02/15 07:43:46;;;;;;;;;2.00;2.00;;;;;;;;5047350;28;11515;-79
2022/02/15 07:46:15;;;;;;;;;4.25;1.75;;;;;;;;5060372;28;11459;-78
2022/02/15 07:48:43;;;;;;;;;1.75;1.50;;;;;;;;5061574;28;11576;-82
2022/02/15 07:51:10;;;;;;;;;2.00;2.00;;;;;;;;5054308;28;11499;-83
2022/02/15 07:53:37;;;;;;;;;5.25;2.00;;;;;;;;5056870;28;11540;-84
2022/02/15 07:56:05;;;;;;;;;4.00;2.00;;;;;;;;5062706;28;11486;-82
2022/02/15 07:58:32;;;;;;;;;4.50;3.00;;;;;;;;5049793;28;11512;-83
2022/02/15 08:00:59;;;;;;;;;5.75;2.50;;;;;;;;5052029;28;11464;-83
2022/02/15 08:03:28;;;;;;;;;1.00;1.00;;;;;;;;5060399;28;11488;-81
2022/02/15 08:05:56;;;;;;;;;2.00;2.00;;;;;;;;5045529;28;11497;-80
2022/02/15 08:08:23;;;;;;;;;1.50;0.75;;;;;;;;5060802;28;11567;-80
2022/02/15 08:10:50;;;;;;;;;1.00;1.00;;;;;;;;5062697;28;11500;-81
2022/02/15 08:13:21;;;;;;;;;4.75;4.75;;;;;;;;5055480;28;11519;-80
2022/02/15 08:15:50;;;;;;;;;2.00;2.00;;;;;;;;5063936;28;11582;-81
2022/02/15 08:18:17;;;;;;;;;1.75;1.00;;;;;;;;5043754;28;11520;-80
2022/02/15 08:20:47;;;;;;;;;3.50;2.00;;;;;;;;5060914;28;11500;-80
2022/02/15 08:23:15;;;;;;;;;1.50;1.50;;;;;;;;5041873;28;11530;-80
2022/02/15 08:25:42;;;;;;;;;4.50;1.00;;;;;;;;5062760;28;11586;-81
2022/02/15 08:28:12;;;;;;;;;4.00;1.50;;;;;;;;5065617;28;12309;-81
2022/02/15 08:30:40;;;;;;;;;1.00;1.00;;;;;;;;5065002;28;11535;-82
2022/02/15 08:33:08;;;;;;;;;4.00;1.00;;;;;;;;5069062;28;11447;-81
2022/02/15 08:35:35;;;;;;;;;4.00;1.00;;;;;;;;5062084;28;11581;-82
2022/02/15 08:38:04;;;;;;;;;1.25;1.25;;;;;;;;5067244;28;11523;-82
2022/02/15 08:40:32;;;;;;;;;3.00;1.00;;;;;;;;5062214;28;12280;-82
2022/02/15 08:43:00;;;;;;;;;2.50;2.00;;;;;;;;5044716;28;11447;-83
2022/02/15 08:45:27;;;;;;;;;1.25;1.25;;;;;;;;5066609;28;11583;-84
2022/02/15 08:47:54;;;;;;;;;3.75;1.00;;;;;;;;5063185;28;11478;-85
2022/02/15 08:50:22;;;;;;;;;4.00;4.00;;;;;;;;5066623;28;11447;-82
2022/02/15 08:52:50;;;;;;;;;2.00;2.00;;;;;;;;5068219;28;11448;-81
2022/02/15 08:55:19;;;;;;;;;4.50;1.75;;;;;;;;5072645;28;11519;-81
2022/02/15 08:57:46;;;;;;;;;0.00;0.00;;;;;;;;5065357;28;11496;-81
2022/02/15 09:00:15;;;;;;;;;1.50;1.00;;;;;;;;5062225;28;11501;-81
2022/02/15 09:02:42;;;;;;;;;1.25;1.00;;;;;;;;5065826;28;11478;-81
2022/02/15 09:05:10;;;;;;;;;4.75;1.00;;;;;;;;5043947;28;11434;-82
2022/02/15 09:07:38;;;;;;;;;1.00;1.00;;;;;;;;5064468;28;11510;-81
2022/02/15 09:10:06;;;;;;;;;1.00;1.00;;;;;;;;5038193;28;11429;-83
2022/02/15 09:12:36;;;;;;;;;0.25;0.25;;;;;;;;5061274;28;11438;-84
2022/02/15 09:15:04;;;;;;;;;1.00;1.00;;;;;;;;5057989;28;11436;-83
2022/02/15 09:17:36;;;;;;;;;1.00;1.00;;;;;;;;5064130;28;11428;-83
2022/02/15 09:20:05;;;;;;;;;0.25;0.25;;;;;;;;5061975;28;11420;-82
2022/02/15 09:22:32;;;;;;;;;1.50;1.50;;;;;;;;5058810;28;11705;-84
2022/02/15 09:25:00;;;;;;;;;1.00;1.00;;;;;;;;5064471;28;12181;-82
2022/02/15 09:27:27;;;;;;;;;1.00;1.00;;;;;;;;5061987;28;11443;-83
2022/02/15 09:29:56;;;;;;;;;1.50;0.00;;;;;;;;5080868;28;10977;-84
2022/02/15 09:32:24;;;;;;;;;6.50;1.00;;;;;;;;5057460;28;10979;-83
2022/02/15 09:34:52;;;;;;;;;0.00;0.00;;;;;;;;5063651;28;11117;-79
2022/02/15 09:37:19;;;;;;;;;0.00;0.00;;;;;;;;5058721;28;10960;-86
2022/02/15 09:39:48;;;;;;;;;3.00;1.50;;;;;;;;5059420;28;10988;-84
2022/02/15 09:42:16;;;;;;;;;1.00;1.00;;;;;;;;5065763;28;11001;-85
2022/02/15 09:44:43;;;;;;;;;3.00;1.00;;;;;;;;5059892;28;10857;-80
2022/02/15 09:47:13;;;;;;;;;0.00;0.00;;;;;;;;5063486;28;10965;-83
2022/02/15 09:49:49;;;;;;;;;2.00;1.00;;;;;;;;5043760;28;10836;-81
2022/02/15 09:52:17;;;;;;;;;1.00;1.00;;;;;;;;5045710;28;10840;-83
2022/02/15 09:54:46;;;;;;;;;0.50;0.50;;;;;;;;5058865;28;11835;-84
2022/02/15 09:57:25;;;;;;;;;1.50;1.25;;;;;;;;5069037;28;10768;-81
2022/02/15 09:59:54;;;;;;;;;0.00;0.00;;;;;;;;5056876;28;10584;-82
2022/02/15 10:02:29;;;;;;;;;2.00;2.00;;;;;;;;5047514;28;10342;-88
2022/02/15 10:05:00;;;;;;;;;1.50;1.00;;;;;;;;5065164;28;10475;-86
2022/02/15 10:07:28;;;;;;;;;1.00;1.00;;;;;;;;5063777;28;10297;-85
2022/02/15 10:09:58;;;;;;;;;1.75;1.75;;;;;;;;5057978;28;10492;-86
2022/02/15 10:12:26;;;;;;;;;1.75;0.50;;;;;;;;5048353;28;10408;-83
2022/02/15 10:14:55;;;;;;;;;2.00;1.00;;;;;;;;5071423;28;10219;-82
2022/02/15 10:17:25;;;;;;;;;2.50;1.75;;;;;;;;5062417;28;10281;-84
2022/02/15 10:19:57;;;;;;;;;2.00;1.00;;;;;;;;5065404;28;10111;-87
2022/02/15 10:22:24;;;;;;;;;1.50;1.50;;;;;;;;5039993;28;10186;-88
2022/02/15 10:24:53;;;;;;;;;1.00;1.00;;;;;;;;5052604;28;10259;-81
2022/02/15 10:27:25;;;;;;;;;1.00;1.00;;;;;;;;5071599;28;10243;-88
2022/02/15 10:29:52;;;;;;;;;1.25;1.25;;;;;;;;5066770;28;10322;-85
2022/02/15 10:32:20;;;;;;;;;2.00;0.00;;;;;;;;5052677;28;10230;-85
2022/02/15 10:34:50;;;;;;;;;2.75;2.00;;;;;;;;5062685;28;10170;-84
2022/02/15 10:37:18;;;;;;;;;2.00;2.00;;;;;;;;5062334;28;10333;-81
2022/02/15 10:39:48;;;;;;;;;1.25;1.25;;;;;;;;5058433;28;10250;-81
2022/02/15 10:42:16;;;;;;;;;3.00;1.00;;;;;;;;5058854;28;10201;-81
2022/02/15 10:44:51;;;;;;;;;2.00;1.00;;;;;;;;5061938;28;10180;-80
2022/02/15 10:47:19;;;;;;;;;3.00;1.75;;;;;;;;5065687;28;10254;-81
2022/02/15 10:49:49;;;;;;;;;1.75;1.00;;;;;;;;5068165;28;10274;-83
2022/02/15 10:52:16;;;;;;;;;1.00;1.00;;;;;;;;5057187;28;10972;-87
2022/02/15 10:54:44;;;;;;;;;0.00;0.00;;;;;;;;5057664;28;10060;-82
2022/02/15 10:57:15;;;;;;;;;0.00;0.00;;;;;;;;5062988;28;9907;-88
2022/02/15 10:59:43;;;;;;;;;0.50;0.50;;;;;;;;5067591;28;9964;-89
2022/02/15 11:02:19;;;;;;;;;1.00;1.00;;;;;;;;5057341;28;9840;-83
2022/02/15 11:04:47;;;;;;;;;2.75;2.75;;;;;;;;5053296;28;9624;-81
2022/02/15 11:07:16;;;;;;;;;3.00;2.00;;;;;;;;5058367;28;9629;-84
2022/02/15 11:10:24;;;;;;;;;0.50;0.50;;;;;;;;5070079;28;9468;-81
2022/02/15 11:12:54;;;;;;;;;3.00;1.33;;;;;;;;5054065;28;10235;-77
2022/02/15 11:15:23;;;;;;;;;1.67;1.00;;;;;;;;5065833;28;9369;-79
2022/02/15 11:17:52;;;;;;;;;1.00;1.00;;;;;;;;5060262;28;9390;-83
2022/02/15 11:20:21;;;;;;;;;3.33;0.00;;;;;;;;5053208;28;9347;-79
2022/02/15 11:22:53;;;;;;;;;0.00;0.00;;;;;;;;5051060;28;9217;-81
2022/02/15 11:25:30;;;;;;;;;0.00;0.00;;;;;;;;5036316;28;9089;-84
2022/02/15 11:27:57;;;;;;;;;1.00;1.00;;;;;;;;5061874;28;9035;-88
2022/02/15 11:30:28;;;;;;;;;1.50;1.25;;;;;;;;5066208;28;8933;-83
2022/02/15 11:32:56;;;;;;;;;1.00;1.00;;;;;;;;5037906;28;8899;-82
2022/02/15 11:35:32;;;;;;;;;0.00;0.00;;;;;;;;5063321;28;8862;-81
2022/02/15 11:38:09;;;;;;;;;0.25;0.00;;;;;;;;5063706;28;8871;-87
2022/02/15 11:40:37;;;;;;;;;0.25;0.25;;;;;;;;5060550;28;8873;-80
2022/02/15 11:43:05;;;;;;;;;1.00;0.00;;;;;;;;5050388;28;8847;-81
2022/02/15 11:45:38;;;;;;;;;2.00;0.00;;;;;;;;5056267;28;8848;-81
2022/02/15 11:48:06;;;;;;;;;0.00;0.00;;;;;;;;5053638;28;8848;-80
2022/02/15 11:50:43;;;;;;;;;2.25;0.00;;;;;;;;5058625;28;8878;-78
2022/02/15 11:53:12;;;;;;;;;2.00;1.00;;;;;;;;5056197;28;8998;-89
2022/02/15 11:55:40;;;;;;;;;1.00;1.00;;;;;;;;5059981;28;8873;-78
2022/02/15 11:58:09;;;;;;;;;0.50;0.00;;;;;;;;5058620;28;8884;-83
2022/02/15 12:00:38;;;;;;;;;1.00;1.00;;;;;;;;5042052;28;8806;-87
2022/02/15 12:03:06;;;;;;;;;0.00;0.00;;;;;;;;5065708;28;8903;-81
2022/02/15 12:05:37;;;;;;;;;2.00;0.75;;;;;;;;5081440;28;8878;-86
2022/02/15 12:08:05;;;;;;;;;0.25;0.00;;;;;;;;5062821;28;9699;-79
2022/02/15 12:10:38;;;;;;;;;1.33;0.00;;;;;;;;5060091;28;8854;-82
2022/02/15 12:13:05;;;;;;;;;1.00;1.00;;;;;;;;5063815;28;8969;-82
2022/02/15 12:15:36;;;;;;;;;0.00;0.00;;;;;;;;5044540;28;9088;-82
2022/02/15 12:18:04;;;;;;;;;1.00;1.00;;;;;;;;5049625;28;9113;-82
2022/02/15 12:20:32;;;;;;;;;0.67;0.67;;;;;;;;5049532;28;9339;-82
2022/02/15 12:22:59;;;;;;;;;1.00;1.00;;;;;;;;5064140;28;9383;-84
2022/02/15 12:25:26;;;;;;;;;0.00;0.00;;;;;;;;5064536;28;9604;-86
2022/02/15 12:28:00;;;;;;;;;0.67;0.00;;;;;;;;5042851;28;9386;-87
2022/02/15 12:30:28;;;;;;;;;1.00;1.00;;;;;;;;5060065;28;9346;-82
2022/02/15 12:32:55;;;;;;;;;0.00;0.00;;;;;;;;5064428;28;10428;-87
2022/02/15 12:35:26;;;;;;;;;3.33;1.00;;;;;;;;5064864;28;9325;-86
2022/02/15 12:37:57;;;;;;;;;2.00;0.00;;;;;;;;5061581;28;9380;-82
2022/02/15 12:40:25;;;;;;;;;0.00;0.00;;;;;;;;5065235;28;9317;-85
2022/02/15 12:42:54;;;;;;;;;0.00;0.00;;;;;;;;5065067;28;10142;-85
2022/02/15 12:45:22;;;;;;;;;1.00;1.00;;;;;;;;5066367;28;9421;-87
2022/02/15 12:47:49;;;;;;;;;0.67;0.00;;;;;;;;5061849;28;9341;-84
2022/02/15 12:50:17;;;;;;;;;1.00;1.00;;;;;;;;5064731;28;9322;-82
2022/02/15 12:52:45;;;;;;;;;0.00;0.00;;;;;;;;5056558;28;9283;-84
2022/02/15 12:55:14;;;;;;;;;0.00;0.00;;;;;;;;5059846;28;9282;-82
2022/02/15 12:57:45;;;;;;;;;1.00;1.00;;;;;;;;5058050;28;9336;-82
2022/02/15 13:00:15;;;;;;;;;2.00;0.33;;;;;;;;5061536;28;9565;-85
2022/02/15 13:02:47;;;;;;;;;1.00;1.00;;;;;;;;5067981;28;9395;-83
2022/02/15 13:05:16;;;;;;;;;0.50;0.00;;;;;;;;5064884;28;9475;-90
2022/02/15 13:07:47;;;;;;;;;0.00;0.00;;;;;;;;5064153;28;9402;-84
2022/02/15 13:10:15;;;;;;;;;3.75;0.75;;;;;;;;5061000;28;10178;-85
2022/02/15 13:12:43;;;;;;;;;0.00;0.00;;;;;;;;5065165;28;9664;-85
2022/02/15 13:15:11;;;;;;;;;0.00;0.00;;;;;;;;5046697;28;9407;-86
2022/02/15 13:17:42;;;;;;;;;0.00;0.00;;;;;;;;5064583;28;9512;-82
2022/02/15 13:20:16;;;;;;;;;0.33;0.33;;;;;;;;5064177;28;9529;-82
2022/02/15 13:22:44;;;;;;;;;0.00;0.00;;;;;;;;5059294;28;9462;-86
2022/02/15 13:25:12;;;;;;;;;2.00;0.00;;;;;;;;5061262;28;9374;-83
2022/02/15 13:27:40;;;;;;;;;3.50;1.00;;;;;;;;5059616;28;9480;-89
2022/02/15 13:30:24;;;;;;;;;0.00;0.00;;;;;;;;5058480;28;9443;-88
2022/02/15 13:33:06;;;;;;;;;0.00;0.00;;;;;;;;5068606;28;9668;-89
2022/02/15 13:35:34;;;;;;;;;0.00;0.00;;;;;;;;5065826;28;10887;-90
2022/02/15 13:38:02;;;;;;;;;0.00;0.00;;;;;;;;5063862;28;9515;-83
2022/02/15 13:40:31;;;;;;;;;0.00;0.00;;;;;;;;5064933;28;9503;-88
2022/02/15 13:43:00;;;;;;;;;2.00;0.75;;;;;;;;5049001;28;9524;-85
2022/02/15 13:45:28;;;;;;;;;3.50;1.00;;;;;;;;5064206;28;9402;-78
2022/02/15 13:47:59;;;;;;;;;0.00;0.00;;;;;;;;5058476;28;9494;-81
2022/02/15 13:50:31;;;;;;;;;0.33;0.33;;;;;;;;5048698;28;9464;-82
2022/02/15 13:52:59;;;;;;;;;1.00;1.00;;;;;;;;5062683;28;9493;-85
2022/02/15 13:55:26;;;;;;;;;0.00;0.00;;;;;;;;5062491;28;9638;-83
2022/02/15 13:57:53;;;;;;;;;0.50;0.50;;;;;;;;5062283;28;9483;-82
2022/02/15 14:00:24;;;;;;;;;3.33;1.00;;;;;;;;5057285;28;9691;-87
2022/02/15 14:02:54;;;;;;;;;1.00;1.00;;;;;;;;5055920;28;9382;-88
2022/02/15 14:05:21;;;;;;;;;0.00;0.00;;;;;;;;5041255;28;9375;-86
2022/02/15 14:07:50;;;;;;;;;0.50;0.50;;;;;;;;5079427;28;9490;-79
2022/02/15 14:10:17;;;;;;;;;1.00;0.00;;;;;;;;5065266;28;9439;-81
2022/02/15 14:12:45;;;;;;;;;0.67;0.67;;;;;;;;5062853;28;9563;-82
2022/02/15 14:15:15;;;;;;;;;2.00;0.00;;;;;;;;5064495;28;9408;-86
2022/02/15 14:17:45;;;;;;;;;0.00;0.00;;;;;;;;5060769;28;9452;-88
2022/02/15 14:20:14;;;;;;;;;1.00;0.00;;;;;;;;5061373;28;9587;-86
2022/02/15 14:22:42;;;;;;;;;0.00;0.00;;;;;;;;5068150;28;9475;-83
2022/02/15 14:25:12;;;;;;;;;0.00;0.00;;;;;;;;5059704;28;9531;-82
2022/02/15 14:27:40;;;;;;;;;0.00;0.00;;;;;;;;5062246;28;9549;-84
2022/02/15 14:30:13;;;;;;;;;0.75;0.25;;;;;;;;5089438;28;10400;-84
2022/02/15 14:32:41;;;;;;;;;0.00;0.00;;;;;;;;5046676;28;9782;-83
2022/02/15 14:35:10;;;;;;;;;0.00;0.00;;;;;;;;5062822;28;9730;-81
2022/02/15 14:37:37;;;;;;;;;1.00;1.00;;;;;;;;5018506;28;9708;-78
2022/02/15 14:40:06;;;;;;;;;0.25;0.25;;;;;;;;5038533;28;9780;-87
2022/02/15 14:42:36;;;;;;;;;2.75;1.00;;;;;;;;5053949;28;9796;-84
2022/02/15 14:45:04;;;;;;;;;0.00;0.00;;;;;;;;5056777;28;9749;-87
2022/02/15 14:47:32;;;;;;;;;0.00;0.00;;;;;;;;5057666;28;9561;-87
2022/02/15 14:50:00;;;;;;;;;1.00;1.00;;;;;;;;5064600;28;9558;-87
2022/02/15 14:52:28;;;;;;;;;0.50;0.50;;;;;;;;5078644;28;9726;-86
2022/02/15 14:54:56;;;;;;;;;0.00;0.00;;;;;;;;5065289;28;9797;-86
2022/02/15 14:57:24;;;;;;;;;0.50;0.00;;;;;;;;5028013;28;9899;-88
2022/02/15 14:59:52;;;;;;;;;0.00;0.00;;;;;;;;5045645;28;9883;-87